sensor_id;sensor_type;location;lat;lon;timestamp;temperature;humidity
20526;DHT22;10421;49.142;9.232;2022-11-14T00:00:44;10.10;92.00
20526;DHT22;10421;49.142;9.232;2022-11-14T00:03:12;10.00;91.90
20526;DHT22;10421;49.142;9.232;2022-11-14T00:05:40;10.00;91.90
20526;DHT22;10421;49.142;9.232;2022-11-14T00:08:14;10.00;92.00
20526;DHT22;10421;49.142;9.232;2022-11-14T00:10:44;10.00;92.10
20526;DHT22;10421;49.142;9.232;2022-11-14T00:13:11;10.00;92.20
20526;DHT22;10421;49.142;9.232;2022-11-14T00:15:39;10.00;92.20
20526;DHT22;10421;49.142;9.232;2022-11-14T00:18:08;10.10;92.30
20526;DHT22;10421;49.142;9.232;2022-11-14T00:20:37;10.10;92.30
20526;DHT22;10421;49.142;9.232;2022-11-14T00:23:04;10.00;92.30
20526;DHT22;10421;49.142;9.232;2022-11-14T00:25:31;10.10;92.50
20526;DHT22;10421;49.142;9.232;2022-11-14T00:27:58;10.00;92.60
20526;DHT22;10421;49.142;9.232;2022-11-14T00:30:26;10.00;92.80
20526;DHT22;10421;49.142;9.232;2022-11-14T00:32:53;10.00;92.90
20526;DHT22;10421;49.142;9.232;2022-11-14T00:35:21;10.00;92.90
20526;DHT22;10421;49.142;9.232;2022-11-14T00:37:48;10.10;93.00
20526;DHT22;10421;49.142;9.232;2022-11-14T00:40:15;10.10;93.10
20526;DHT22;10421;49.142;9.232;2022-11-14T00:42:42;10.10;93.10
20526;DHT22;10421;49.142;9.232;2022-11-14T00:45:09;10.10;93.30
20526;DHT22;10421;49.142;9.232;2022-11-14T00:47:36;10.10;93.40
20526;DHT22;10421;49.142;9.232;2022-11-14T00:50:04;10.10;93.50
20526;DHT22;10421;49.142;9.232;2022-11-14T00:52:32;10.10;93.70
20526;DHT22;10421;49.142;9.232;2022-11-14T00:54:59;10.20;93.70
20526;DHT22;10421;49.142;9.232;2022-11-14T00:57:26;10.20;93.70
20526;DHT22;10421;49.142;9.232;2022-11-14T00:59:53;10.20;93.70
20526;DHT22;10421;49.142;9.232;2022-11-14T01:02:20;10.30;93.80
20526;DHT22;10421;49.142;9.232;2022-11-14T01:04:47;10.30;93.80
20526;DHT22;10421;49.142;9.232;2022-11-14T01:07:13;10.30;93.90
20526;DHT22;10421;49.142;9.232;2022-11-14T01:09:41;10.30;93.90
20526;DHT22;10421;49.142;9.232;2022-11-14T01:12:08;10.30;94.00
20526;DHT22;10421;49.142;9.232;2022-11-14T01:14:35;10.40;94.00
20526;DHT22;10421;49.142;9.232;2022-11-14T01:17:02;10.20;94.00
20526;DHT22;10421;49.142;9.232;2022-11-14T01:19:29;10.20;94.30
20526;DHT22;10421;49.142;9.232;2022-11-14T01:21:56;10.20;94.20
20526;DHT22;10421;49.142;9.232;2022-11-14T01:24:22;10.30;94.20
20526;DHT22;10421;49.142;9.232;2022-11-14T01:26:53;10.30;94.20
20526;DHT22;10421;49.142;9.232;2022-11-14T01:29:20;10.40;94.20
20526;DHT22;10421;49.142;9.232;2022-11-14T01:31:47;10.40;94.20
20526;DHT22;10421;49.142;9.232;2022-11-14T01:34:13;10.40;94.10
20526;DHT22;10421;49.142;9.232;2022-11-14T01:36:40;10.30;94.20
20526;DHT22;10421;49.142;9.232;2022-11-14T01:39:07;10.30;94.20
20526;DHT22;10421;49.142;9.232;2022-11-14T01:41:34;10.40;94.30
20526;DHT22;10421;49.142;9.232;2022-11-14T01:44:02;10.40;94.30
20526;DHT22;10421;49.142;9.232;2022-11-14T01:46:39;10.40;94.40
20526;DHT22;10421;49.142;9.232;2022-11-14T01:49:14;10.40;94.40
20526;DHT22;10421;49.142;9.232;2022-11-14T01:51:45;10.50;94.40
20526;DHT22;10421;49.142;9.232;2022-11-14T01:54:19;10.50;94.40
20526;DHT22;10421;49.142;9.232;2022-11-14T01:56:48;10.50;94.40
20526;DHT22;10421;49.142;9.232;2022-11-14T01:59:21;10.40;94.40
20526;DHT22;10421;49.142;9.232;2022-11-14T02:01:51;10.40;94.40
20526;DHT22;10421;49.142;9.232;2022-11-14T02:04:21;10.40;94.40
20526;DHT22;10421;49.142;9.232;2022-11-14T02:06:49;10.40;94.50
20526;DHT22;10421;49.142;9.232;2022-11-14T02:09:17;10.50;94.50
20526;DHT22;10421;49.142;9.232;2022-11-14T02:11:45;10.50;94.40
20526;DHT22;10421;49.142;9.232;2022-11-14T02:14:11;10.50;94.30
20526;DHT22;10421;49.142;9.232;2022-11-14T02:16:41;10.50;94.40
20526;DHT22;10421;49.142;9.232;2022-11-14T02:19:08;10.40;94.40
20526;DHT22;10421;49.142;9.232;2022-11-14T02:21:36;10.40;94.50
20526;DHT22;10421;49.142;9.232;2022-11-14T02:24:07;10.40;94.50
20526;DHT22;10421;49.142;9.232;2022-11-14T02:26:34;10.40;94.50
20526;DHT22;10421;49.142;9.232;2022-11-14T02:29:01;10.40;94.60
20526;DHT22;10421;49.142;9.232;2022-11-14T02:31:28;10.30;94.60
20526;DHT22;10421;49.142;9.232;2022-11-14T02:33:54;10.30;94.60
20526;DHT22;10421;49.142;9.232;2022-11-14T02:36:21;10.30;94.80
20526;DHT22;10421;49.142;9.232;2022-11-14T02:38:49;10.30;94.90
20526;DHT22;10421;49.142;9.232;2022-11-14T02:41:16;10.20;94.90
20526;DHT22;10421;49.142;9.232;2022-11-14T02:43:43;10.20;94.90
20526;DHT22;10421;49.142;9.232;2022-11-14T02:46:09;10.20;95.00
20526;DHT22;10421;49.142;9.232;2022-11-14T02:48:36;10.20;95.00
20526;DHT22;10421;49.142;9.232;2022-11-14T02:51:03;10.10;95.00
20526;DHT22;10421;49.142;9.232;2022-11-14T02:53:30;10.00;95.60
20526;DHT22;10421;49.142;9.232;2022-11-14T02:55:58;9.90;95.90
20526;DHT22;10421;49.142;9.232;2022-11-14T02:58:25;9.90;96.00
20526;DHT22;10421;49.142;9.232;2022-11-14T03:00:51;9.80;96.10
20526;DHT22;10421;49.142;9.232;2022-11-14T03:03:18;9.80;96.20
20526;DHT22;10421;49.142;9.232;2022-11-14T03:05:45;9.80;96.30
20526;DHT22;10421;49.142;9.232;2022-11-14T03:08:11;9.90;96.30
20526;DHT22;10421;49.142;9.232;2022-11-14T03:10:38;9.90;96.20
20526;DHT22;10421;49.142;9.232;2022-11-14T03:13:06;10.00;95.70
20526;DHT22;10421;49.142;9.232;2022-11-14T03:15:35;10.00;95.60
20526;DHT22;10421;49.142;9.232;2022-11-14T03:18:02;10.00;95.50
20526;DHT22;10421;49.142;9.232;2022-11-14T03:20:29;10.00;95.60
20526;DHT22;10421;49.142;9.232;2022-11-14T03:22:56;10.10;95.70
20526;DHT22;10421;49.142;9.232;2022-11-14T03:25:23;10.10;95.70
20526;DHT22;10421;49.142;9.232;2022-11-14T03:27:49;10.10;95.70
20526;DHT22;10421;49.142;9.232;2022-11-14T03:30:17;10.20;95.80
20526;DHT22;10421;49.142;9.232;2022-11-14T03:32:44;10.20;95.70
20526;DHT22;10421;49.142;9.232;2022-11-14T03:35:11;10.30;95.70
20526;DHT22;10421;49.142;9.232;2022-11-14T03:37:38;10.30;95.70
20526;DHT22;10421;49.142;9.232;2022-11-14T03:40:06;10.30;95.70
20526;DHT22;10421;49.142;9.232;2022-11-14T03:42:33;10.40;95.70
20526;DHT22;10421;49.142;9.232;2022-11-14T03:45:00;10.40;95.70
20526;DHT22;10421;49.142;9.232;2022-11-14T03:47:28;10.40;95.70
20526;DHT22;10421;49.142;9.232;2022-11-14T03:49:55;10.40;95.70
20526;DHT22;10421;49.142;9.232;2022-11-14T03:52:22;10.40;95.60
20526;DHT22;10421;49.142;9.232;2022-11-14T03:54:50;10.50;95.60
20526;DHT22;10421;49.142;9.232;2022-11-14T03:57:17;10.50;95.50
20526;DHT22;10421;49.142;9.232;2022-11-14T03:59:44;10.40;95.50
20526;DHT22;10421;49.142;9.232;2022-11-14T04:02:10;10.50;95.50
20526;DHT22;10421;49.142;9.232;2022-11-14T04:04:38;10.50;95.50
20526;DHT22;10421;49.142;9.232;2022-11-14T04:07:05;10.50;95.40
20526;DHT22;10421;49.142;9.232;2022-11-14T04:09:32;10.50;95.40
20526;DHT22;10421;49.142;9.232;2022-11-14T04:11:58;10.40;95.30
20526;DHT22;10421;49.142;9.232;2022-11-14T04:14:25;10.40;95.10
20526;DHT22;10421;49.142;9.232;2022-11-14T04:16:52;10.30;95.00
20526;DHT22;10421;49.142;9.232;2022-11-14T04:19:19;10.20;94.80
20526;DHT22;10421;49.142;9.232;2022-11-14T04:21:47;10.20;94.80
20526;DHT22;10421;49.142;9.232;2022-11-14T04:24:14;10.00;94.60
20526;DHT22;10421;49.142;9.232;2022-11-14T04:26:40;10.00;94.70
20526;DHT22;10421;49.142;9.232;2022-11-14T04:29:07;10.00;94.70
20526;DHT22;10421;49.142;9.232;2022-11-14T04:31:34;9.90;95.10
20526;DHT22;10421;49.142;9.232;2022-11-14T04:34:01;9.90;95.20
20526;DHT22;10421;49.142;9.232;2022-11-14T04:36:27;9.90;95.30
20526;DHT22;10421;49.142;9.232;2022-11-14T04:38:55;9.90;95.30
20526;DHT22;10421;49.142;9.232;2022-11-14T04:41:22;9.90;95.30
20526;DHT22;10421;49.142;9.232;2022-11-14T04:43:49;9.90;95.30
20526;DHT22;10421;49.142;9.232;2022-11-14T04:46:16;9.90;95.20
20526;DHT22;10421;49.142;9.232;2022-11-14T04:48:42;9.80;95.10
20526;DHT22;10421;49.142;9.232;2022-11-14T04:51:09;9.80;95.10
20526;DHT22;10421;49.142;9.232;2022-11-14T04:53:36;9.80;95.10
20526;DHT22;10421;49.142;9.232;2022-11-14T04:56:04;9.80;95.10
20526;DHT22;10421;49.142;9.232;2022-11-14T04:58:31;9.70;95.20
20526;DHT22;10421;49.142;9.232;2022-11-14T05:00:58;9.80;95.20
20526;DHT22;10421;49.142;9.232;2022-11-14T05:03:25;9.70;95.30
20526;DHT22;10421;49.142;9.232;2022-11-14T05:05:51;9.70;95.30
20526;DHT22;10421;49.142;9.232;2022-11-14T05:08:18;9.70;95.30
20526;DHT22;10421;49.142;9.232;2022-11-14T05:10:45;9.70;95.30
20526;DHT22;10421;49.142;9.232;2022-11-14T05:13:13;9.70;95.30
20526;DHT22;10421;49.142;9.232;2022-11-14T05:15:40;9.70;95.30
20526;DHT22;10421;49.142;9.232;2022-11-14T05:18:07;9.70;95.30
20526;DHT22;10421;49.142;9.232;2022-11-14T05:20:33;9.70;95.30
20526;DHT22;10421;49.142;9.232;2022-11-14T05:23:00;9.60;95.30
20526;DHT22;10421;49.142;9.232;2022-11-14T05:25:27;9.60;95.40
20526;DHT22;10421;49.142;9.232;2022-11-14T05:27:54;9.50;95.40
20526;DHT22;10421;49.142;9.232;2022-11-14T05:30:22;9.50;95.40
20526;DHT22;10421;49.142;9.232;2022-11-14T05:32:50;9.50;95.50
20526;DHT22;10421;49.142;9.232;2022-11-14T05:35:17;9.50;95.60
20526;DHT22;10421;49.142;9.232;2022-11-14T05:37:44;9.50;95.60
20526;DHT22;10421;49.142;9.232;2022-11-14T05:40:11;9.50;95.50
20526;DHT22;10421;49.142;9.232;2022-11-14T05:42:37;9.50;95.40
20526;DHT22;10421;49.142;9.232;2022-11-14T05:45:05;9.50;95.30
20526;DHT22;10421;49.142;9.232;2022-11-14T05:47:34;9.40;95.30
20526;DHT22;10421;49.142;9.232;2022-11-14T05:50:00;9.40;95.20
20526;DHT22;10421;49.142;9.232;2022-11-14T05:52:27;9.40;95.20
20526;DHT22;10421;49.142;9.232;2022-11-14T05:54:54;9.40;95.20
20526;DHT22;10421;49.142;9.232;2022-11-14T05:57:21;9.40;95.10
20526;DHT22;10421;49.142;9.232;2022-11-14T05:59:47;9.40;95.00
20526;DHT22;10421;49.142;9.232;2022-11-14T06:02:14;9.30;95.00
20526;DHT22;10421;49.142;9.232;2022-11-14T06:04:42;9.30;95.00
20526;DHT22;10421;49.142;9.232;2022-11-14T06:07:09;9.30;95.10
20526;DHT22;10421;49.142;9.232;2022-11-14T06:09:36;9.20;95.10
20526;DHT22;10421;49.142;9.232;2022-11-14T06:12:03;9.20;95.20
20526;DHT22;10421;49.142;9.232;2022-11-14T06:14:32;9.20;95.20
20526;DHT22;10421;49.142;9.232;2022-11-14T06:16:59;9.20;95.20
20526;DHT22;10421;49.142;9.232;2022-11-14T06:19:29;9.20;95.20
20526;DHT22;10421;49.142;9.232;2022-11-14T06:21:57;9.10;95.20
20526;DHT22;10421;49.142;9.232;2022-11-14T06:24:24;9.10;95.10
20526;DHT22;10421;49.142;9.232;2022-11-14T06:26:51;9.10;95.10
20526;DHT22;10421;49.142;9.232;2022-11-14T06:29:18;9.10;95.10
20526;DHT22;10421;49.142;9.232;2022-11-14T06:31:45;9.10;95.00
20526;DHT22;10421;49.142;9.232;2022-11-14T06:34:12;9.10;95.00
20526;DHT22;10421;49.142;9.232;2022-11-14T06:36:38;9.10;95.00
20526;DHT22;10421;49.142;9.232;2022-11-14T06:39:07;9.10;94.90
20526;DHT22;10421;49.142;9.232;2022-11-14T06:41:36;9.00;94.80
20526;DHT22;10421;49.142;9.232;2022-11-14T06:44:02;9.00;94.80
20526;DHT22;10421;49.142;9.232;2022-11-14T06:46:29;9.00;94.80
20526;DHT22;10421;49.142;9.232;2022-11-14T06:48:56;9.00;94.80
20526;DHT22;10421;49.142;9.232;2022-11-14T06:51:22;9.00;94.90
20526;DHT22;10421;49.142;9.232;2022-11-14T06:53:49;9.00;94.80
20526;DHT22;10421;49.142;9.232;2022-11-14T06:56:17;9.00;94.90
20526;DHT22;10421;49.142;9.232;2022-11-14T06:58:46;9.10;95.00
20526;DHT22;10421;49.142;9.232;2022-11-14T07:01:15;9.00;95.00
20526;DHT22;10421;49.142;9.232;2022-11-14T07:03:43;9.10;95.00
20526;DHT22;10421;49.142;9.232;2022-11-14T07:06:12;9.10;95.00
20526;DHT22;10421;49.142;9.232;2022-11-14T07:08:40;9.10;95.00
20526;DHT22;10421;49.142;9.232;2022-11-14T07:11:10;9.10;95.00
20526;DHT22;10421;49.142;9.232;2022-11-14T07:13:48;9.10;94.90
20526;DHT22;10421;49.142;9.232;2022-11-14T07:16:15;9.10;94.90
20526;DHT22;10421;49.142;9.232;2022-11-14T07:18:42;9.20;95.00
20526;DHT22;10421;49.142;9.232;2022-11-14T07:21:09;9.10;95.00
20526;DHT22;10421;49.142;9.232;2022-11-14T07:23:38;9.20;95.10
20526;DHT22;10421;49.142;9.232;2022-11-14T07:26:06;9.20;95.20
20526;DHT22;10421;49.142;9.232;2022-11-14T07:28:33;9.30;95.20
20526;DHT22;10421;49.142;9.232;2022-11-14T07:31:05;9.30;95.20
20526;DHT22;10421;49.142;9.232;2022-11-14T07:33:33;9.30;95.30
20526;DHT22;10421;49.142;9.232;2022-11-14T07:36:00;9.30;95.40
20526;DHT22;10421;49.142;9.232;2022-11-14T07:38:27;9.20;95.40
20526;DHT22;10421;49.142;9.232;2022-11-14T07:40:56;9.30;95.70
20526;DHT22;10421;49.142;9.232;2022-11-14T07:43:24;9.40;96.30
20526;DHT22;10421;49.142;9.232;2022-11-14T07:45:51;9.50;96.50
20526;DHT22;10421;49.142;9.232;2022-11-14T07:48:19;9.70;96.40
20526;DHT22;10421;49.142;9.232;2022-11-14T07:50:47;9.90;96.20
20526;DHT22;10421;49.142;9.232;2022-11-14T07:53:13;10.20;95.70
20526;DHT22;10421;49.142;9.232;2022-11-14T07:55:42;10.50;95.40
20526;DHT22;10421;49.142;9.232;2022-11-14T07:58:09;10.80;95.00
20526;DHT22;10421;49.142;9.232;2022-11-14T08:00:36;11.10;94.60
20526;DHT22;10421;49.142;9.232;2022-11-14T08:03:05;11.50;94.40
20526;DHT22;10421;49.142;9.232;2022-11-14T08:05:33;11.70;93.60
20526;DHT22;10421;49.142;9.232;2022-11-14T08:08:00;11.60;93.00
20526;DHT22;10421;49.142;9.232;2022-11-14T08:10:27;11.50;92.80
20526;DHT22;10421;49.142;9.232;2022-11-14T08:12:58;11.30;92.80
20526;DHT22;10421;49.142;9.232;2022-11-14T08:15:26;11.20;92.90
20526;DHT22;10421;49.142;9.232;2022-11-14T08:17:56;11.00;93.00
20526;DHT22;10421;49.142;9.232;2022-11-14T08:20:24;10.90;93.30
20526;DHT22;10421;49.142;9.232;2022-11-14T08:22:52;10.80;93.50
20526;DHT22;10421;49.142;9.232;2022-11-14T08:25:19;10.70;93.70
20526;DHT22;10421;49.142;9.232;2022-11-14T08:27:45;10.60;93.80
20526;DHT22;10421;49.142;9.232;2022-11-14T08:30:13;10.60;93.90
20526;DHT22;10421;49.142;9.232;2022-11-14T08:32:39;10.50;94.00
20526;DHT22;10421;49.142;9.232;2022-11-14T08:35:06;10.50;94.10
20526;DHT22;10421;49.142;9.232;2022-11-14T08:37:33;10.50;94.20
20526;DHT22;10421;49.142;9.232;2022-11-14T08:40:02;10.40;94.30
20526;DHT22;10421;49.142;9.232;2022-11-14T08:42:29;10.40;94.40
20526;DHT22;10421;49.142;9.232;2022-11-14T08:44:56;10.40;94.50
20526;DHT22;10421;49.142;9.232;2022-11-14T08:47:22;10.30;94.60
20526;DHT22;10421;49.142;9.232;2022-11-14T08:49:49;10.20;94.80
20526;DHT22;10421;49.142;9.232;2022-11-14T08:52:16;10.30;94.90
20526;DHT22;10421;49.142;9.232;2022-11-14T08:54:43;10.20;95.20
20526;DHT22;10421;49.142;9.232;2022-11-14T08:57:11;10.10;95.30
20526;DHT22;10421;49.142;9.232;2022-11-14T08:59:39;10.10;95.50
20526;DHT22;10421;49.142;9.232;2022-11-14T09:02:08;10.10;95.40
20526;DHT22;10421;49.142;9.232;2022-11-14T09:04:35;10.10;95.50
20526;DHT22;10421;49.142;9.232;2022-11-14T09:07:02;10.10;95.80
20526;DHT22;10421;49.142;9.232;2022-11-14T09:09:29;10.10;95.80
20526;DHT22;10421;49.142;9.232;2022-11-14T09:11:56;10.10;95.90
20526;DHT22;10421;49.142;9.232;2022-11-14T09:14:24;10.20;96.00
20526;DHT22;10421;49.142;9.232;2022-11-14T09:16:51;10.30;96.00
20526;DHT22;10421;49.142;9.232;2022-11-14T09:19:17;10.40;95.90
20526;DHT22;10421;49.142;9.232;2022-11-14T09:21:44;10.50;96.20
20526;DHT22;10421;49.142;9.232;2022-11-14T09:24:11;10.50;96.10
20526;DHT22;10421;49.142;9.232;2022-11-14T09:26:38;10.50;96.40
20526;DHT22;10421;49.142;9.232;2022-11-14T09:29:05;10.30;96.70
20526;DHT22;10421;49.142;9.232;2022-11-14T09:31:34;10.20;97.40
20526;DHT22;10421;49.142;9.232;2022-11-14T09:34:01;10.20;97.60
20526;DHT22;10421;49.142;9.232;2022-11-14T09:36:28;10.20;98.00
20526;DHT22;10421;49.142;9.232;2022-11-14T09:38:54;10.20;98.60
20526;DHT22;10421;49.142;9.232;2022-11-14T09:41:23;10.20;98.70
20526;DHT22;10421;49.142;9.232;2022-11-14T09:46:56;10.20;99.20
20526;DHT22;10421;49.142;9.232;2022-11-14T09:49:30;10.20;99.80
20526;DHT22;10421;49.142;9.232;2022-11-14T09:52:02;10.20;99.90
20526;DHT22;10421;49.142;9.232;2022-11-14T09:54:37;10.20;99.90
20526;DHT22;10421;49.142;9.232;2022-11-14T09:57:13;10.10;99.90
20526;DHT22;10421;49.142;9.232;2022-11-14T09:59:40;9.90;99.90
20526;DHT22;10421;49.142;9.232;2022-11-14T10:02:20;9.80;99.90
20526;DHT22;10421;49.142;9.232;2022-11-14T10:04:54;9.70;99.90
20526;DHT22;10421;49.142;9.232;2022-11-14T10:07:33;9.80;99.90
20526;DHT22;10421;49.142;9.232;2022-11-14T10:10:08;9.90;99.90
20526;DHT22;10421;49.142;9.232;2022-11-14T10:12:45;10.00;99.90
20526;DHT22;10421;49.142;9.232;2022-11-14T10:15:22;10.10;99.90
20526;DHT22;10421;49.142;9.232;2022-11-14T10:18:06;10.20;99.90
20526;DHT22;10421;49.142;9.232;2022-11-14T10:20:43;10.30;99.90
20526;DHT22;10421;49.142;9.232;2022-11-14T10:23:24;10.40;99.90
20526;DHT22;10421;49.142;9.232;2022-11-14T10:26:05;10.60;99.90
20526;DHT22;10421;49.142;9.232;2022-11-14T10:28:43;10.50;99.90
20526;DHT22;10421;49.142;9.232;2022-11-14T10:31:22;10.50;99.90
20526;DHT22;10421;49.142;9.232;2022-11-14T10:34:02;10.60;99.90
20526;DHT22;10421;49.142;9.232;2022-11-14T10:36:47;10.60;99.90
20526;DHT22;10421;49.142;9.232;2022-11-14T10:39:18;10.60;99.90
20526;DHT22;10421;49.142;9.232;2022-11-14T10:41:49;10.70;99.90
20526;DHT22;10421;49.142;9.232;2022-11-14T10:44:21;10.80;99.90
20526;DHT22;10421;49.142;9.232;2022-11-14T10:46:54;10.80;99.90
20526;DHT22;10421;49.142;9.232;2022-11-14T10:49:25;10.90;99.90
20526;DHT22;10421;49.142;9.232;2022-11-14T10:51:54;11.00;99.90
20526;DHT22;10421;49.142;9.232;2022-11-14T10:54:26;11.00;99.90
20526;DHT22;10421;49.142;9.232;2022-11-14T10:56:56;11.10;99.90
20526;DHT22;10421;49.142;9.232;2022-11-14T10:59:22;11.10;99.90
20526;DHT22;10421;49.142;9.232;2022-11-14T11:01:54;11.20;99.90
20526;DHT22;10421;49.142;9.232;2022-11-14T11:04:26;11.20;99.90
20526;DHT22;10421;49.142;9.232;2022-11-14T11:06:54;11.20;99.90
20526;DHT22;10421;49.142;9.232;2022-11-14T11:09:23;11.30;99.90
20526;DHT22;10421;49.142;9.232;2022-11-14T11:12:14;11.30;99.90
20526;DHT22;10421;49.142;9.232;2022-11-14T11:14:42;11.40;99.90
20526;DHT22;10421;49.142;9.232;2022-11-14T11:17:17;11.40;99.90
20526;DHT22;10421;49.142;9.232;2022-11-14T11:19:47;11.50;99.90
20526;DHT22;10421;49.142;9.232;2022-11-14T11:22:26;11.60;99.90
20526;DHT22;10421;49.142;9.232;2022-11-14T11:24:53;11.70;99.90
20526;DHT22;10421;49.142;9.232;2022-11-14T11:27:22;11.70;99.90
20526;DHT22;10421;49.142;9.232;2022-11-14T11:32:42;11.80;99.90
20526;DHT22;10421;49.142;9.232;2022-11-14T11:35:13;11.80;99.90
20526;DHT22;10421;49.142;9.232;2022-11-14T11:37:43;11.90;99.90
20526;DHT22;10421;49.142;9.232;2022-11-14T11:40:16;11.90;99.90
20526;DHT22;10421;49.142;9.232;2022-11-14T11:42:47;12.00;99.90
20526;DHT22;10421;49.142;9.232;2022-11-14T11:45:17;12.00;99.90
20526;DHT22;10421;49.142;9.232;2022-11-14T11:47:49;12.10;99.90
20526;DHT22;10421;49.142;9.232;2022-11-14T11:50:20;12.20;99.90
20526;DHT22;10421;49.142;9.232;2022-11-14T11:52:55;12.50;99.90
20526;DHT22;10421;49.142;9.232;2022-11-14T11:55:25;12.80;99.90
20526;DHT22;10421;49.142;9.232;2022-11-14T11:57:58;13.00;99.90
20526;DHT22;10421;49.142;9.232;2022-11-14T12:00:29;13.40;99.90
20526;DHT22;10421;49.142;9.232;2022-11-14T12:02:59;13.60;99.90
20526;DHT22;10421;49.142;9.232;2022-11-14T12:05:36;13.60;99.40
20526;DHT22;10421;49.142;9.232;2022-11-14T12:08:12;13.80;99.40
20526;DHT22;10421;49.142;9.232;2022-11-14T12:10:42;13.70;99.30
20526;DHT22;10421;49.142;9.232;2022-11-14T12:13:55;13.70;99.30
20526;DHT22;10421;49.142;9.232;2022-11-14T12:16:45;13.60;99.40
20526;DHT22;10421;49.142;9.232;2022-11-14T12:20:06;13.60;99.60
20526;DHT22;10421;49.142;9.232;2022-11-14T12:23:04;13.70;99.60
20526;DHT22;10421;49.142;9.232;2022-11-14T12:25:41;13.60;99.80
20526;DHT22;10421;49.142;9.232;2022-11-14T12:28:28;13.60;99.90
20526;DHT22;10421;49.142;9.232;2022-11-14T12:30:59;13.60;99.80
20526;DHT22;10421;49.142;9.232;2022-11-14T12:33:29;13.70;99.90
20526;DHT22;10421;49.142;9.232;2022-11-14T12:36:00;13.70;99.70
20526;DHT22;10421;49.142;9.232;2022-11-14T12:38:33;13.70;99.60
20526;DHT22;10421;49.142;9.232;2022-11-14T12:41:01;13.70;99.70
20526;DHT22;10421;49.142;9.232;2022-11-14T12:43:34;13.60;99.60
20526;DHT22;10421;49.142;9.232;2022-11-14T12:46:03;13.50;99.40
20526;DHT22;10421;49.142;9.232;2022-11-14T12:48:36;13.50;99.40
20526;DHT22;10421;49.142;9.232;2022-11-14T12:51:07;13.50;99.60
20526;DHT22;10421;49.142;9.232;2022-11-14T12:53:53;13.50;99.60
20526;DHT22;10421;49.142;9.232;2022-11-14T12:59:39;13.60;99.30
20526;DHT22;10421;49.142;9.232;2022-11-14T13:02:22;13.60;99.30
20526;DHT22;10421;49.142;9.232;2022-11-14T13:05:08;13.70;99.30
20526;DHT22;10421;49.142;9.232;2022-11-14T13:07:49;13.70;99.20
20526;DHT22;10421;49.142;9.232;2022-11-14T13:10:23;13.90;99.20
20526;DHT22;10421;49.142;9.232;2022-11-14T13:12:57;14.10;99.00
20526;DHT22;10421;49.142;9.232;2022-11-14T13:15:48;14.40;98.40
20526;DHT22;10421;49.142;9.232;2022-11-14T13:18:34;14.60;98.10
20526;DHT22;10421;49.142;9.232;2022-11-14T13:21:24;14.80;97.50
20526;DHT22;10421;49.142;9.232;2022-11-14T13:24:10;14.90;97.00
20526;DHT22;10421;49.142;9.232;2022-11-14T13:26:44;15.00;96.70
20526;DHT22;10421;49.142;9.232;2022-11-14T13:29:47;15.20;97.00
20526;DHT22;10421;49.142;9.232;2022-11-14T13:35:32;15.40;96.10
20526;DHT22;10421;49.142;9.232;2022-11-14T13:38:28;15.30;96.00
20526;DHT22;10421;49.142;9.232;2022-11-14T13:41:05;15.20;96.30
20526;DHT22;10421;49.142;9.232;2022-11-14T13:43:46;15.20;96.30
20526;DHT22;10421;49.142;9.232;2022-11-14T13:46:27;15.10;96.70
20526;DHT22;10421;49.142;9.232;2022-11-14T13:49:15;15.10;96.50
20526;DHT22;10421;49.142;9.232;2022-11-14T13:51:43;15.20;96.60
20526;DHT22;10421;49.142;9.232;2022-11-14T13:54:11;15.10;96.60
20526;DHT22;10421;49.142;9.232;2022-11-14T13:56:47;15.00;96.80
20526;DHT22;10421;49.142;9.232;2022-11-14T13:59:46;15.00;97.00
20526;DHT22;10421;49.142;9.232;2022-11-14T14:05:20;15.00;96.90
20526;DHT22;10421;49.142;9.232;2022-11-14T14:10:54;14.90;96.90
20526;DHT22;10421;49.142;9.232;2022-11-14T14:13:33;14.70;96.80
20526;DHT22;10421;49.142;9.232;2022-11-14T14:16:11;14.70;97.10
20526;DHT22;10421;49.142;9.232;2022-11-14T14:18:47;14.70;97.20
20526;DHT22;10421;49.142;9.232;2022-11-14T14:21:29;14.70;97.10
20526;DHT22;10421;49.142;9.232;2022-11-14T14:24:04;14.70;97.10
20526;DHT22;10421;49.142;9.232;2022-11-14T14:26:41;14.70;96.80
20526;DHT22;10421;49.142;9.232;2022-11-14T14:29:19;14.70;96.90
20526;DHT22;10421;49.142;9.232;2022-11-14T14:31:50;14.60;97.00
20526;DHT22;10421;49.142;9.232;2022-11-14T14:34:22;14.50;97.20
20526;DHT22;10421;49.142;9.232;2022-11-14T14:36:51;14.50;97.20
20526;DHT22;10421;49.142;9.232;2022-11-14T14:39:19;14.50;97.10
20526;DHT22;10421;49.142;9.232;2022-11-14T14:41:47;14.60;97.00
20526;DHT22;10421;49.142;9.232;2022-11-14T14:44:22;14.60;96.90
20526;DHT22;10421;49.142;9.232;2022-11-14T14:46:51;14.60;96.80
20526;DHT22;10421;49.142;9.232;2022-11-14T14:49:21;14.60;96.90
20526;DHT22;10421;49.142;9.232;2022-11-14T14:51:49;14.70;96.70
20526;DHT22;10421;49.142;9.232;2022-11-14T14:54:20;14.70;96.50
20526;DHT22;10421;49.142;9.232;2022-11-14T14:56:52;14.70;96.60
20526;DHT22;10421;49.142;9.232;2022-11-14T14:59:22;14.70;96.60
20526;DHT22;10421;49.142;9.232;2022-11-14T15:01:50;14.70;96.60
20526;DHT22;10421;49.142;9.232;2022-11-14T15:04:20;14.80;96.50
20526;DHT22;10421;49.142;9.232;2022-11-14T15:06:48;14.80;96.40
20526;DHT22;10421;49.142;9.232;2022-11-14T15:09:17;14.70;96.40
20526;DHT22;10421;49.142;9.232;2022-11-14T15:11:46;14.70;96.40
20526;DHT22;10421;49.142;9.232;2022-11-14T15:14:17;14.60;96.30
20526;DHT22;10421;49.142;9.232;2022-11-14T15:16:46;14.60;96.40
20526;DHT22;10421;49.142;9.232;2022-11-14T15:19:18;14.60;96.30
20526;DHT22;10421;49.142;9.232;2022-11-14T15:22:00;14.60;96.40
20526;DHT22;10421;49.142;9.232;2022-11-14T15:24:27;14.70;96.40
20526;DHT22;10421;49.142;9.232;2022-11-14T15:26:54;14.80;96.10
20526;DHT22;10421;49.142;9.232;2022-11-14T15:29:23;14.80;96.10
20526;DHT22;10421;49.142;9.232;2022-11-14T15:31:52;14.80;96.10
20526;DHT22;10421;49.142;9.232;2022-11-14T15:34:26;14.80;95.90
20526;DHT22;10421;49.142;9.232;2022-11-14T15:37:16;14.90;95.90
20526;DHT22;10421;49.142;9.232;2022-11-14T15:39:45;14.90;95.70
20526;DHT22;10421;49.142;9.232;2022-11-14T15:42:13;14.90;95.60
20526;DHT22;10421;49.142;9.232;2022-11-14T15:44:40;14.90;95.30
20526;DHT22;10421;49.142;9.232;2022-11-14T15:47:11;14.90;95.30
20526;DHT22;10421;49.142;9.232;2022-11-14T15:49:57;14.90;95.40
20526;DHT22;10421;49.142;9.232;2022-11-14T15:52:27;15.00;95.20
20526;DHT22;10421;49.142;9.232;2022-11-14T15:54:55;15.10;95.20
20526;DHT22;10421;49.142;9.232;2022-11-14T15:57:22;15.10;95.10
20526;DHT22;10421;49.142;9.232;2022-11-14T15:59:49;15.10;95.00
20526;DHT22;10421;49.142;9.232;2022-11-14T16:02:18;15.10;94.90
20526;DHT22;10421;49.142;9.232;2022-11-14T16:04:47;15.10;94.90
20526;DHT22;10421;49.142;9.232;2022-11-14T16:07:16;15.10;94.90
20526;DHT22;10421;49.142;9.232;2022-11-14T16:09:43;15.10;94.80
20526;DHT22;10421;49.142;9.232;2022-11-14T16:12:10;15.00;95.00